Terminal Aerodrome Forecast
Issued by NWS

Home | Current Version | Previous Version | Text Only | Print | Product List | Glossary On
Versions: 1 2 3 4 5 6 7 8 9 10 11 12 13 14 15 16 17 18 19 20 21 22 23 24 25
000
FTUS43 KTOP 240700 AAA
TAFFOE
TAF AMD
KFOE 240752Z 2408/2506 19005KT 4SM BR SCT004 BKN250
      TEMPO 2408/2410 2SM BR BKN004
     FM241530 21014KT P6SM SCT250
     FM242300 23005KT P6SM SKC=

USA.gov is the U.S. government's official web portal to all federal, state and local government web resources and services.